createdAt,value
2022-11-22T00:00:47.308Z,4.35
2022-11-22T00:01:28.333Z,4.31
2022-11-22T00:02:08.342Z,4.35
2022-11-22T00:02:48.370Z,4.40
2022-11-22T00:03:28.255Z,4.36
2022-11-22T00:04:08.334Z,4.40
2022-11-22T00:04:48.262Z,4.32
2022-11-22T00:05:28.321Z,4.38
2022-11-22T00:06:09.321Z,4.33
2022-11-22T00:06:49.395Z,4.38
2022-11-22T00:07:29.351Z,4.36
2022-11-22T00:08:10.364Z,4.36
2022-11-22T00:08:51.321Z,4.36
2022-11-22T00:09:31.515Z,4.36
2022-11-22T00:10:17.269Z,4.40
2022-11-22T00:10:58.322Z,4.37
2022-11-22T00:11:38.297Z,4.33
2022-11-22T00:12:18.322Z,4.40
2022-11-22T00:12:58.273Z,4.25
2022-11-22T00:13:38.439Z,4.27
2022-11-22T00:14:18.275Z,4.36
2022-11-22T00:14:58.340Z,4.37
2022-11-22T00:15:39.278Z,4.33
2022-11-22T00:16:19.312Z,4.28
2022-11-22T00:16:59.295Z,4.29
2022-11-22T00:17:40.369Z,4.26
2022-11-22T00:18:20.244Z,4.27
2022-11-22T00:19:14.272Z,4.23
2022-11-22T00:20:08.277Z,4.21
2022-11-22T00:21:02.257Z,4.25
2022-11-22T00:21:56.266Z,4.24
2022-11-22T00:22:44.056Z,4.23
2022-11-22T00:23:25.316Z,4.19
2022-11-22T00:24:06.259Z,4.20
2022-11-22T00:24:46.377Z,4.20
2022-11-22T00:25:26.273Z,4.14
2022-11-22T00:26:11.776Z,4.14
2022-11-22T00:26:51.258Z,4.10
2022-11-22T00:27:31.288Z,4.09
2022-11-22T00:28:11.283Z,4.07
2022-11-22T00:28:51.348Z,4.02
2022-11-22T00:29:31.447Z,4.08
2022-11-22T00:30:12.308Z,4.08
2022-11-22T00:30:53.272Z,4.03
2022-11-22T00:31:33.280Z,4.07
2022-11-22T00:32:13.253Z,4.06
2022-11-22T00:32:54.380Z,3.99
2022-11-22T00:33:35.273Z,3.94
2022-11-22T00:34:15.318Z,3.88
2022-11-22T00:34:55.258Z,3.89
2022-11-22T00:35:37.332Z,3.92
2022-11-22T00:36:18.241Z,3.84
2022-11-22T00:36:58.305Z,3.80
2022-11-22T00:37:39.243Z,3.78
2022-11-22T00:38:19.276Z,3.87
2022-11-22T00:39:00.270Z,3.91
2022-11-22T00:39:40.302Z,3.91
2022-11-22T00:40:20.263Z,3.96
2022-11-22T00:41:00.287Z,3.97
2022-11-22T00:41:40.232Z,4.00
2022-11-22T00:42:20.318Z,3.98
2022-11-22T00:43:01.225Z,3.99
2022-11-22T00:43:41.348Z,4.02
2022-11-22T00:44:21.262Z,4.04
2022-11-22T00:45:01.331Z,4.04
2022-11-22T00:45:41.289Z,4.05
2022-11-22T00:46:21.297Z,3.99
2022-11-22T00:47:02.258Z,4.08
2022-11-22T00:47:43.276Z,4.08
2022-11-22T00:48:23.247Z,4.05
2022-11-22T00:49:03.280Z,4.04
2022-11-22T00:49:43.232Z,4.10
2022-11-22T00:50:23.243Z,4.08
2022-11-22T00:51:03.216Z,4.09
2022-11-22T00:51:43.271Z,4.10
2022-11-22T00:52:24.227Z,4.08
2022-11-22T00:53:04.371Z,4.17
2022-11-22T00:53:44.227Z,4.18
2022-11-22T00:54:24.285Z,4.15
2022-11-22T00:55:04.278Z,4.14
2022-11-22T00:55:44.259Z,4.14
2022-11-22T00:56:24.214Z,4.14
2022-11-22T00:57:05.247Z,4.17
2022-11-22T00:57:45.211Z,4.18
2022-11-22T00:58:25.321Z,4.06
2022-11-22T00:59:06.235Z,4.10
2022-11-22T00:59:46.395Z,4.14
2022-11-22T01:00:27.239Z,4.12
2022-11-22T01:01:07.306Z,4.13
2022-11-22T01:01:48.214Z,4.15
2022-11-22T01:02:28.284Z,4.12
2022-11-22T01:03:08.200Z,4.19
2022-11-22T01:03:48.260Z,4.19
2022-11-22T01:04:28.217Z,4.13
2022-11-22T01:05:08.275Z,4.16
2022-11-22T01:05:48.262Z,4.27
2022-11-22T01:06:28.269Z,4.29
2022-11-22T01:07:08.278Z,4.32
2022-11-22T01:08:02.249Z,4.30
2022-11-22T01:08:56.235Z,4.29
2022-11-22T01:09:50.206Z,4.24
2022-11-22T01:10:44.183Z,4.28
2022-11-22T01:11:26.266Z,4.24
2022-11-22T01:12:06.284Z,4.26
2022-11-22T01:12:46.228Z,4.16
2022-11-22T01:13:26.269Z,4.14
2022-11-22T01:14:07.195Z,4.21
2022-11-22T01:14:47.244Z,4.25
2022-11-22T01:15:27.192Z,4.09
2022-11-22T01:16:14.403Z,4.30
2022-11-22T01:16:55.236Z,4.22
2022-11-22T01:17:35.214Z,4.29
2022-11-22T01:18:15.207Z,4.30
2022-11-22T01:18:55.289Z,4.29
2022-11-22T01:19:36.211Z,4.23
2022-11-22T01:20:17.281Z,4.15
2022-11-22T01:20:58.212Z,4.23
2022-11-22T01:21:38.271Z,4.25
2022-11-22T01:22:20.213Z,4.29
2022-11-22T01:23:00.251Z,4.29
2022-11-22T01:23:41.196Z,4.32
2022-11-22T01:24:21.239Z,4.33
2022-11-22T01:25:01.266Z,4.36
2022-11-22T01:25:42.329Z,4.36
2022-11-22T01:26:22.220Z,4.39
2022-11-22T01:27:02.264Z,4.40
2022-11-22T01:27:43.218Z,4.24
2022-11-22T01:28:24.242Z,4.39
2022-11-22T01:29:04.180Z,4.42
2022-11-22T01:29:44.238Z,4.45
2022-11-22T01:30:25.162Z,4.40
2022-11-22T01:31:05.203Z,4.35
2022-11-22T01:31:45.230Z,4.26
2022-11-22T01:32:25.436Z,4.35
2022-11-22T01:33:05.212Z,4.24
2022-11-22T01:33:45.293Z,4.20
2022-11-22T01:34:25.200Z,4.17
2022-11-22T01:35:06.245Z,4.19
2022-11-22T01:35:46.172Z,4.19
2022-11-22T01:36:26.240Z,4.25
2022-11-22T01:37:06.169Z,4.11
2022-11-22T01:37:46.256Z,4.21
2022-11-22T01:38:26.217Z,4.33
2022-11-22T01:39:06.292Z,4.31
2022-11-22T01:39:47.171Z,4.34
2022-11-22T01:40:27.280Z,4.32
2022-11-22T01:41:07.203Z,4.29
2022-11-22T01:41:47.217Z,4.36
2022-11-22T01:42:27.157Z,4.33
2022-11-22T01:43:08.208Z,4.36
2022-11-22T01:43:48.204Z,4.37
2022-11-22T01:44:36.289Z,4.37
2022-11-22T01:45:38.190Z,4.35
2022-11-22T01:46:46.326Z,4.30
2022-11-22T01:47:29.163Z,4.35
2022-11-22T01:48:30.229Z,4.40
2022-11-22T01:49:24.165Z,4.40
2022-11-22T01:50:08.185Z,4.42
2022-11-22T01:50:51.208Z,4.42
2022-11-22T01:51:43.215Z,4.49
2022-11-22T01:52:26.159Z,4.48
2022-11-22T01:53:26.234Z,4.40
2022-11-22T01:54:13.219Z,4.43
2022-11-22T01:55:02.172Z,4.42
2022-11-22T01:55:37.346Z,4.44
2022-11-22T01:56:26.327Z,4.49
2022-11-22T01:57:06.296Z,4.44
2022-11-22T01:57:54.151Z,4.31
2022-11-22T01:58:28.204Z,4.25
2022-11-22T01:59:21.176Z,4.30
2022-11-22T02:00:00.365Z,4.32
2022-11-22T02:00:41.282Z,4.39
2022-11-22T02:01:21.296Z,4.40
2022-11-22T02:02:02.147Z,4.32
2022-11-22T02:02:43.210Z,4.38
2022-11-22T02:03:24.157Z,4.44
2022-11-22T02:04:06.227Z,4.43
2022-11-22T02:04:47.157Z,4.46
2022-11-22T02:05:31.246Z,4.38
2022-11-22T02:06:12.179Z,4.44
2022-11-22T02:07:22.257Z,4.28
2022-11-22T02:08:18.158Z,4.41
2022-11-22T02:09:07.183Z,4.49
2022-11-22T02:09:48.175Z,4.52
2022-11-22T02:10:30.199Z,4.47
2022-11-22T02:11:11.157Z,4.48
2022-11-22T02:11:57.164Z,4.47
2022-11-22T02:12:35.204Z,4.47
2022-11-22T02:13:23.143Z,4.45
2022-11-22T02:13:58.172Z,4.48
2022-11-22T02:14:46.131Z,4.49
2022-11-22T02:15:20.261Z,4.53
2022-11-22T02:16:07.146Z,4.49
2022-11-22T02:16:49.188Z,4.49
2022-11-22T02:17:43.154Z,4.45
2022-11-22T02:18:37.141Z,4.48
2022-11-22T02:20:06.139Z,4.36
2022-11-22T02:21:00.160Z,4.46
2022-11-22T02:21:54.135Z,4.43
2022-11-22T02:23:21.143Z,4.32
2022-11-22T02:24:33.159Z,4.44
2022-11-22T02:25:54.127Z,4.50
2022-11-22T02:26:48.116Z,4.47
2022-11-22T02:27:28.127Z,4.49
2022-11-22T02:28:08.173Z,4.52
2022-11-22T02:28:49.158Z,4.55
2022-11-22T02:29:29.382Z,4.49
2022-11-22T02:30:09.129Z,4.50
2022-11-22T02:30:49.209Z,4.51
2022-11-22T02:31:51.127Z,4.44
2022-11-22T02:32:38.124Z,4.52
2022-11-22T02:33:32.133Z,4.53
2022-11-22T02:34:27.129Z,4.55
2022-11-22T02:35:42.102Z,4.57
2022-11-22T02:36:36.115Z,4.53
2022-11-22T02:37:39.137Z,4.60
2022-11-22T02:38:44.125Z,4.62
2022-11-22T02:39:42.144Z,4.61
2022-11-22T02:40:37.139Z,4.64
2022-11-22T02:41:31.110Z,4.64
2022-11-22T02:42:26.113Z,4.62
2022-11-22T02:43:14.140Z,4.58
2022-11-22T02:43:54.201Z,4.62
2022-11-22T02:44:34.117Z,4.60
2022-11-22T02:45:15.143Z,4.61
2022-11-22T02:45:55.114Z,4.61
2022-11-22T02:46:35.265Z,4.57
2022-11-22T02:47:16.128Z,4.57
2022-11-22T02:47:57.142Z,4.37
2022-11-22T02:48:37.119Z,4.40
2022-11-22T02:49:17.322Z,4.43
2022-11-22T02:50:00.119Z,4.45
2022-11-22T02:50:40.197Z,4.45
2022-11-22T02:51:23.086Z,4.50
2022-11-22T02:52:03.138Z,4.50
2022-11-22T02:52:44.098Z,4.55
2022-11-22T02:53:24.164Z,4.55
2022-11-22T02:54:05.136Z,4.40
2022-11-22T02:54:45.221Z,4.43
2022-11-22T02:55:25.104Z,4.42
2022-11-22T02:56:05.222Z,4.44
2022-11-22T02:56:45.131Z,4.41
2022-11-22T02:57:25.160Z,4.40
2022-11-22T02:58:05.101Z,4.40
2022-11-22T02:58:45.134Z,4.44
2022-11-22T02:59:26.106Z,4.43
2022-11-22T03:00:06.126Z,4.37
2022-11-22T03:00:47.198Z,4.46
2022-11-22T03:01:27.127Z,4.48
2022-11-22T03:02:08.120Z,4.47
2022-11-22T03:02:48.161Z,4.52
2022-11-22T03:03:28.103Z,4.51
2022-11-22T03:04:08.145Z,4.59
2022-11-22T03:04:48.128Z,4.37
2022-11-22T03:05:28.166Z,4.58
2022-11-22T03:06:09.145Z,4.49
2022-11-22T03:06:51.649Z,4.43
2022-11-22T03:07:32.160Z,4.45
2022-11-22T03:08:12.177Z,4.40
2022-11-22T03:08:56.734Z,4.44
2022-11-22T03:09:38.147Z,4.45
2022-11-22T03:10:19.148Z,4.46
2022-11-22T03:10:59.211Z,4.46
2022-11-22T03:11:40.070Z,4.48
2022-11-22T03:12:20.163Z,4.53
2022-11-22T03:13:01.108Z,4.44
2022-11-22T03:13:41.197Z,4.36
2022-11-22T03:14:23.075Z,4.30
2022-11-22T03:15:03.180Z,4.35
2022-11-22T03:15:43.108Z,4.29
2022-11-22T03:16:23.123Z,4.33
2022-11-22T03:17:03.083Z,4.37
2022-11-22T03:17:43.198Z,4.28
2022-11-22T03:18:23.083Z,4.33
2022-11-22T03:19:03.257Z,4.30
2022-11-22T03:19:44.071Z,4.27
2022-11-22T03:20:24.366Z,4.32
2022-11-22T03:21:10.069Z,4.23
2022-11-22T03:21:51.208Z,4.29
2022-11-22T03:22:32.060Z,4.25
2022-11-22T03:23:12.127Z,4.28
2022-11-22T03:23:52.075Z,4.29
2022-11-22T03:24:32.129Z,4.27
2022-11-22T03:25:14.115Z,4.23
2022-11-22T03:25:54.089Z,4.20
2022-11-22T03:26:34.063Z,4.18
2022-11-22T03:27:14.080Z,4.26
2022-11-22T03:27:55.118Z,4.16
2022-11-22T03:28:35.176Z,4.14
2022-11-22T03:29:15.054Z,4.16
2022-11-22T03:29:55.147Z,4.18
2022-11-22T03:30:36.066Z,4.09
2022-11-22T03:31:16.097Z,4.10
2022-11-22T03:31:57.079Z,4.25
2022-11-22T03:32:37.134Z,4.21
2022-11-22T03:33:18.068Z,4.19
2022-11-22T03:33:58.110Z,4.20
2022-11-22T03:34:39.106Z,4.26
2022-11-22T03:35:20.191Z,4.18
2022-11-22T03:36:04.108Z,4.28
2022-11-22T03:36:44.212Z,4.32
2022-11-22T03:37:24.086Z,4.29
2022-11-22T03:38:04.235Z,4.25
2022-11-22T03:38:45.050Z,4.21
2022-11-22T03:39:25.197Z,4.29
2022-11-22T03:40:06.090Z,4.19
2022-11-22T03:40:46.093Z,4.20
2022-11-22T03:41:27.075Z,4.21
2022-11-22T03:42:07.197Z,4.21
2022-11-22T03:42:47.072Z,4.22
2022-11-22T03:43:28.320Z,4.27
2022-11-22T03:44:09.053Z,4.13
2022-11-22T03:44:49.121Z,4.21
2022-11-22T03:45:30.074Z,4.18
2022-11-22T03:46:10.304Z,4.13
2022-11-22T03:46:50.026Z,4.04
2022-11-22T03:47:30.145Z,3.97
2022-11-22T03:48:11.079Z,4.09
2022-11-22T03:48:52.183Z,4.03
2022-11-22T03:49:33.364Z,4.04
2022-11-22T03:50:15.079Z,4.00
2022-11-22T03:50:55.108Z,4.08
2022-11-22T03:51:36.451Z,4.17
2022-11-22T03:52:17.039Z,4.20
2022-11-22T03:52:57.112Z,4.17
2022-11-22T03:53:37.043Z,4.17
2022-11-22T03:54:18.073Z,4.27
2022-11-22T03:54:59.077Z,4.24
2022-11-22T03:55:40.245Z,4.25
2022-11-22T03:56:20.053Z,4.18
2022-11-22T03:57:00.232Z,4.16
2022-11-22T03:57:40.029Z,4.16
2022-11-22T03:58:20.065Z,4.07
2022-11-22T03:59:01.083Z,4.10
2022-11-22T03:59:41.128Z,4.08
2022-11-22T04:00:22.025Z,4.05
2022-11-22T04:01:03.326Z,4.08
2022-11-22T04:01:44.141Z,4.05
2022-11-22T04:02:24.072Z,4.05
2022-11-22T04:03:04.028Z,4.06
2022-11-22T04:03:44.125Z,4.00
2022-11-22T04:04:25.097Z,4.10
2022-11-22T04:05:05.099Z,4.05
2022-11-22T04:05:45.032Z,4.16
2022-11-22T04:06:25.162Z,4.08
2022-11-22T04:07:05.092Z,4.02
2022-11-22T04:07:45.224Z,4.03
2022-11-22T04:08:26.009Z,3.94
2022-11-22T04:09:06.139Z,4.03
2022-11-22T04:09:47.179Z,4.08
2022-11-22T04:10:27.182Z,3.98
2022-11-22T04:11:08.027Z,3.99
2022-11-22T04:11:48.161Z,3.96
2022-11-22T04:12:28.033Z,4.02
2022-11-22T04:13:09.085Z,4.00
2022-11-22T04:14:08.055Z,4.03
2022-11-22T04:15:13.075Z,4.06
2022-11-22T04:16:10.073Z,4.09
2022-11-22T04:17:04.017Z,4.04
2022-11-22T04:18:00.004Z,4.02
2022-11-22T04:18:54.010Z,3.93
2022-11-22T04:20:08.095Z,3.90
2022-11-22T04:21:07.025Z,3.75
2022-11-22T04:22:01.073Z,3.80
2022-11-22T04:22:55.035Z,3.78
2022-11-22T04:23:50.022Z,3.87
2022-11-22T04:25:02.002Z,3.93
2022-11-22T04:26:05.979Z,3.83
2022-11-22T04:26:47.053Z,3.73
2022-11-22T04:27:27.039Z,3.86
2022-11-22T04:28:08.083Z,3.88
2022-11-22T04:29:08.746Z,3.87
2022-11-22T04:29:49.006Z,3.87
2022-11-22T04:30:48.811Z,3.86
2022-11-22T04:31:48.041Z,3.89
2022-11-22T04:32:47.577Z,3.83
2022-11-22T04:33:30.016Z,3.94
2022-11-22T04:34:10.069Z,3.95
2022-11-22T04:34:50.000Z,3.95
2022-11-22T04:35:30.148Z,3.93
2022-11-22T04:36:13.425Z,3.89
2022-11-22T04:37:01.172Z,3.89
2022-11-22T04:37:55.991Z,3.83
2022-11-22T04:38:50.039Z,3.87
2022-11-22T04:39:44.104Z,3.94
2022-11-22T04:40:38.040Z,3.79
2022-11-22T04:41:31.990Z,3.64
2022-11-22T04:42:53.994Z,3.80
2022-11-22T04:43:53.691Z,3.76
2022-11-22T04:44:46.975Z,3.75
2022-11-22T04:45:21.093Z,3.79
2022-11-22T04:46:08.988Z,3.82
2022-11-22T04:46:43.072Z,3.80
2022-11-22T04:47:50.497Z,3.73
2022-11-22T04:48:31.995Z,3.69
2022-11-22T04:49:25.999Z,3.73
2022-11-22T04:50:41.119Z,3.76
2022-11-22T04:51:53.006Z,3.88
2022-11-22T04:53:01.992Z,3.86
2022-11-22T04:53:51.004Z,3.86
2022-11-22T04:54:25.039Z,3.88
2022-11-22T04:55:12.983Z,3.85
2022-11-22T04:55:47.071Z,3.91
2022-11-22T04:56:33.985Z,3.92
2022-11-22T04:57:07.986Z,3.96
2022-11-22T04:57:59.642Z,3.89
2022-11-22T04:58:34.021Z,3.85
2022-11-22T04:59:14.985Z,3.87
2022-11-22T04:59:55.031Z,3.86
2022-11-22T05:00:36.997Z,3.85
2022-11-22T05:01:18.409Z,3.83
2022-11-22T05:01:59.983Z,3.71
2022-11-22T05:02:40.068Z,3.82
2022-11-22T05:03:19.978Z,3.79
2022-11-22T05:04:01.065Z,3.76
2022-11-22T05:04:45.113Z,3.66
2022-11-22T05:05:31.334Z,3.75
2022-11-22T05:06:11.958Z,3.78
2022-11-22T05:06:52.033Z,3.73
2022-11-22T05:07:33.001Z,3.69
2022-11-22T05:08:14.046Z,3.57
2022-11-22T05:08:54.981Z,3.76
2022-11-22T05:09:36.102Z,3.81
2022-11-22T05:10:21.334Z,3.82
2022-11-22T05:11:05.048Z,3.85
2022-11-22T05:11:44.972Z,3.74
2022-11-22T05:12:25.105Z,3.66
2022-11-22T05:13:04.964Z,3.65
2022-11-22T05:13:47.034Z,3.58
2022-11-22T05:14:27.948Z,3.63
2022-11-22T05:15:09.024Z,3.67
2022-11-22T05:15:49.954Z,3.61
2022-11-22T05:16:30.100Z,3.69
2022-11-22T05:17:13.352Z,3.61
2022-11-22T05:17:54.094Z,3.63
2022-11-22T05:18:35.988Z,3.58
2022-11-22T05:19:16.989Z,3.53
2022-11-22T05:19:56.964Z,3.58
2022-11-22T05:20:37.018Z,3.52
2022-11-22T05:21:19.969Z,3.55
2022-11-22T05:22:01.047Z,3.54
2022-11-22T05:22:59.964Z,3.55
2022-11-22T05:23:55.273Z,3.61
2022-11-22T05:24:35.924Z,3.57
2022-11-22T05:25:15.970Z,3.55
2022-11-22T05:25:55.928Z,3.52
2022-11-22T05:26:41.950Z,3.36
2022-11-22T05:27:16.104Z,3.36
2022-11-22T05:28:02.962Z,3.42
2022-11-22T05:28:39.437Z,3.43
2022-11-22T05:29:25.940Z,3.44
2022-11-22T05:30:00.046Z,3.44
2022-11-22T05:30:47.959Z,3.34
2022-11-22T05:31:28.263Z,3.34
2022-11-22T05:32:09.001Z,3.40
2022-11-22T05:32:49.095Z,3.37
2022-11-22T05:33:29.942Z,3.42
2022-11-22T05:34:10.988Z,3.47
2022-11-22T05:34:50.940Z,3.42
2022-11-22T05:35:31.022Z,3.48
2022-11-22T05:36:13.114Z,3.45
2022-11-22T05:36:53.004Z,3.39
2022-11-22T05:37:33.937Z,3.50
2022-11-22T05:38:14.052Z,3.49
2022-11-22T05:38:54.947Z,3.55
2022-11-22T05:39:34.975Z,3.49
2022-11-22T05:40:16.922Z,3.54
2022-11-22T05:40:56.963Z,3.44
2022-11-22T05:41:36.899Z,3.45
2022-11-22T05:42:30.929Z,3.52
2022-11-22T05:43:11.919Z,3.52
2022-11-22T05:43:52.984Z,3.52
2022-11-22T05:44:33.942Z,3.56
2022-11-22T05:45:15.021Z,3.57
2022-11-22T05:45:54.958Z,3.65
2022-11-22T05:46:36.976Z,3.52
2022-11-22T05:47:16.981Z,3.44
2022-11-22T05:47:56.995Z,3.42
2022-11-22T05:48:37.929Z,3.45
2022-11-22T05:49:18.047Z,3.41
2022-11-22T05:49:58.933Z,3.50
2022-11-22T05:50:38.948Z,3.57
2022-11-22T05:51:22.918Z,3.55
2022-11-22T05:52:02.975Z,3.40
2022-11-22T05:52:43.915Z,3.52
2022-11-22T05:53:24.978Z,3.43
2022-11-22T05:54:05.973Z,3.52
2022-11-22T05:54:46.013Z,3.53
2022-11-22T05:55:25.912Z,3.56
2022-11-22T05:56:14.000Z,3.53
2022-11-22T05:56:54.911Z,3.58
2022-11-22T05:57:34.976Z,3.66
2022-11-22T05:58:15.966Z,3.64
2022-11-22T05:58:56.994Z,3.63
2022-11-22T05:59:42.571Z,3.61
2022-11-22T06:00:25.442Z,3.59
2022-11-22T06:01:20.893Z,3.61
2022-11-22T06:02:01.030Z,3.63
2022-11-22T06:02:41.946Z,3.69
2022-11-22T06:03:22.124Z,3.64
2022-11-22T06:04:02.889Z,3.65
2022-11-22T06:04:49.956Z,3.62
2022-11-22T06:05:44.923Z,3.70
2022-11-22T06:06:38.936Z,3.62
2022-11-22T06:07:33.940Z,3.69
2022-11-22T06:08:27.914Z,3.63
2022-11-22T06:09:21.942Z,3.67
2022-11-22T06:10:08.920Z,3.68
2022-11-22T06:10:42.975Z,3.75
2022-11-22T06:11:32.912Z,3.79
2022-11-22T06:12:07.022Z,3.72
2022-11-22T06:12:53.920Z,3.63
2022-11-22T06:13:27.950Z,3.73
2022-11-22T06:14:15.915Z,3.71
2022-11-22T06:14:52.005Z,3.68
2022-11-22T06:15:32.967Z,3.68
2022-11-22T06:16:15.024Z,3.72
2022-11-22T06:16:58.040Z,3.59
2022-11-22T06:17:38.919Z,3.72
2022-11-22T06:18:19.020Z,3.78
2022-11-22T06:19:00.005Z,3.82
2022-11-22T06:19:39.914Z,3.73
2022-11-22T06:20:19.955Z,3.77
2022-11-22T06:21:07.894Z,3.71
2022-11-22T06:21:48.906Z,3.66
2022-11-22T06:22:28.901Z,3.61
2022-11-22T06:23:08.937Z,3.66
2022-11-22T06:23:49.882Z,3.62
2022-11-22T06:24:29.993Z,3.57
2022-11-22T06:25:10.904Z,3.51
2022-11-22T06:25:52.246Z,3.56
2022-11-22T06:26:46.916Z,3.58
2022-11-22T06:27:41.860Z,3.66
2022-11-22T06:28:35.903Z,3.69
2022-11-22T06:29:30.103Z,3.70
2022-11-22T06:30:24.984Z,3.79
2022-11-22T06:31:24.906Z,3.85
2022-11-22T06:32:11.894Z,3.88
2022-11-22T06:32:45.896Z,3.84
2022-11-22T06:33:32.892Z,3.84
2022-11-22T06:34:06.922Z,3.90
2022-11-22T06:34:53.893Z,3.88
2022-11-22T06:35:28.109Z,3.85
2022-11-22T06:36:30.893Z,3.80
2022-11-22T06:37:05.062Z,3.87
2022-11-22T06:37:45.892Z,3.90
2022-11-22T06:38:25.959Z,3.88
2022-11-22T06:39:06.927Z,3.96
2022-11-22T06:39:47.922Z,3.91
2022-11-22T06:40:27.842Z,3.92
2022-11-22T06:41:13.932Z,3.96
2022-11-22T06:41:53.841Z,4.03
2022-11-22T06:42:47.855Z,4.03
2022-11-22T06:43:48.799Z,4.07
2022-11-22T06:44:43.856Z,3.92
2022-11-22T06:45:37.868Z,3.91
2022-11-22T06:46:34.892Z,4.04
2022-11-22T06:47:28.894Z,4.08
2022-11-22T06:48:08.857Z,4.10
2022-11-22T06:48:49.948Z,4.09
2022-11-22T06:49:31.284Z,4.03
2022-11-22T06:50:12.760Z,3.93
2022-11-22T06:50:54.939Z,3.90
2022-11-22T06:51:36.948Z,3.82
2022-11-22T06:52:17.902Z,3.91
2022-11-22T06:52:58.866Z,3.89
2022-11-22T06:53:48.971Z,3.82
2022-11-22T06:54:29.901Z,3.90
2022-11-22T06:55:34.505Z,3.82
2022-11-22T06:56:20.943Z,3.88
2022-11-22T06:57:01.858Z,3.99
2022-11-22T06:57:41.990Z,4.02
2022-11-22T06:58:21.852Z,4.05
2022-11-22T06:59:03.936Z,4.05
2022-11-22T06:59:37.936Z,4.07
2022-11-22T07:00:25.853Z,4.15
2022-11-22T07:00:59.977Z,4.05
2022-11-22T07:01:46.932Z,4.03
2022-11-22T07:02:21.014Z,4.14
2022-11-22T07:03:07.847Z,4.08
2022-11-22T07:03:42.895Z,3.98
2022-11-22T07:04:23.888Z,4.14
2022-11-22T07:05:24.412Z,4.18
2022-11-22T07:06:04.009Z,4.09
2022-11-22T07:06:44.885Z,4.02
2022-11-22T07:07:24.920Z,3.97
2022-11-22T07:08:12.068Z,3.85
2022-11-22T07:08:54.846Z,4.00
2022-11-22T07:09:41.883Z,4.05
2022-11-22T07:10:35.954Z,3.99
2022-11-22T07:11:36.848Z,3.97
2022-11-22T07:12:30.826Z,3.99
2022-11-22T07:13:24.815Z,4.01
2022-11-22T07:14:19.864Z,4.05
2022-11-22T07:15:06.851Z,4.05
2022-11-22T07:15:40.840Z,4.02
2022-11-22T07:16:28.848Z,4.06
2022-11-22T07:17:02.889Z,4.10
2022-11-22T07:17:49.848Z,4.14
2022-11-22T07:18:23.927Z,4.10
2022-11-22T07:19:11.826Z,4.14
2022-11-22T07:19:45.904Z,4.10
2022-11-22T07:20:26.911Z,3.90
2022-11-22T07:21:15.344Z,3.95
2022-11-22T07:21:56.825Z,4.03
2022-11-22T07:22:36.892Z,3.92
2022-11-22T07:23:18.851Z,4.03
2022-11-22T07:24:01.973Z,4.08
2022-11-22T07:24:41.814Z,4.10
2022-11-22T07:25:21.871Z,4.14
2022-11-22T07:26:02.823Z,4.17
2022-11-22T07:26:42.880Z,4.14
2022-11-22T07:27:22.809Z,4.14
2022-11-22T07:28:02.831Z,4.18
2022-11-22T07:28:43.816Z,4.21
2022-11-22T07:29:37.910Z,4.25
2022-11-22T07:30:31.813Z,4.17
2022-11-22T07:31:20.830Z,4.24
2022-11-22T07:31:54.880Z,4.18
2022-11-22T07:32:42.827Z,4.20
2022-11-22T07:33:17.020Z,4.22
2022-11-22T07:34:04.810Z,4.27
2022-11-22T07:34:40.274Z,4.22
2022-11-22T07:35:26.819Z,4.24
2022-11-22T07:36:01.040Z,4.27
2022-11-22T07:36:41.846Z,4.27
2022-11-22T07:37:21.869Z,4.15
2022-11-22T07:38:01.821Z,4.15
2022-11-22T07:38:42.920Z,4.21
2022-11-22T07:39:22.815Z,4.23
2022-11-22T07:40:03.107Z,4.25
2022-11-22T07:40:43.784Z,4.23
2022-11-22T07:41:25.912Z,4.29
2022-11-22T07:42:06.868Z,4.27
2022-11-22T07:42:46.942Z,4.11
2022-11-22T07:43:27.797Z,4.13
2022-11-22T07:44:07.934Z,4.19
2022-11-22T07:44:47.776Z,4.13
2022-11-22T07:45:29.213Z,4.07
2022-11-22T07:46:12.794Z,4.18
2022-11-22T07:46:53.993Z,4.10
2022-11-22T07:47:34.860Z,4.13
2022-11-22T07:48:16.062Z,4.18
2022-11-22T07:48:56.802Z,4.20
2022-11-22T07:49:36.940Z,4.23
2022-11-22T07:50:18.834Z,4.25
2022-11-22T07:50:58.982Z,4.30
2022-11-22T07:51:39.799Z,4.30
2022-11-22T07:52:19.984Z,4.25
2022-11-22T07:53:11.481Z,4.25
2022-11-22T07:53:52.862Z,4.37
2022-11-22T07:54:33.777Z,4.36
2022-11-22T07:55:14.867Z,4.30
2022-11-22T07:55:55.812Z,4.22
2022-11-22T07:56:37.865Z,4.32
2022-11-22T07:57:18.799Z,4.27
2022-11-22T07:58:05.050Z,4.38
2022-11-22T07:58:45.815Z,4.41
2022-11-22T07:59:27.049Z,4.43
2022-11-22T08:00:08.783Z,4.46
2022-11-22T08:00:49.833Z,4.47
2022-11-22T08:01:30.843Z,4.44
2022-11-22T08:02:10.898Z,4.43
2022-11-22T08:02:51.790Z,4.22
2022-11-22T08:03:31.873Z,4.34
2022-11-22T08:04:11.824Z,4.35
2022-11-22T08:04:51.920Z,4.33
2022-11-22T08:05:32.770Z,4.15
2022-11-22T08:06:15.904Z,4.21
2022-11-22T08:06:55.767Z,4.23
2022-11-22T08:07:35.908Z,4.28
2022-11-22T08:08:15.803Z,4.35
2022-11-22T08:09:00.490Z,4.35
2022-11-22T08:09:42.788Z,4.22
2022-11-22T08:10:23.824Z,4.31
2022-11-22T08:11:04.766Z,4.32
2022-11-22T08:11:44.813Z,4.35
2022-11-22T08:12:24.743Z,4.36
2022-11-22T08:13:06.800Z,4.29
2022-11-22T08:13:47.752Z,4.35
2022-11-22T08:14:27.842Z,4.45
2022-11-22T08:15:09.811Z,4.47
2022-11-22T08:15:54.647Z,4.52
2022-11-22T08:16:35.780Z,4.39
2022-11-22T08:17:15.838Z,4.41
2022-11-22T08:17:55.741Z,4.47
2022-11-22T08:18:35.872Z,4.40
2022-11-22T08:19:16.763Z,4.39
2022-11-22T08:19:56.827Z,4.25
2022-11-22T08:20:37.793Z,4.33
2022-11-22T08:21:19.945Z,4.29
2022-11-22T08:22:00.765Z,4.35
2022-11-22T08:22:40.966Z,4.25
2022-11-22T08:23:20.760Z,4.26
2022-11-22T08:24:06.033Z,4.28
2022-11-22T08:24:45.765Z,4.25
2022-11-22T08:25:26.826Z,4.32
2022-11-22T08:26:06.800Z,4.30
2022-11-22T08:26:46.772Z,4.35
2022-11-22T08:27:26.763Z,4.34
2022-11-22T08:28:06.836Z,4.38
2022-11-22T08:28:48.751Z,4.37
2022-11-22T08:29:42.795Z,4.40
2022-11-22T08:30:36.750Z,4.40
2022-11-22T08:31:25.763Z,4.36
2022-11-22T08:31:59.806Z,4.40
2022-11-22T08:32:46.720Z,4.32
2022-11-22T08:33:20.770Z,4.39
2022-11-22T08:34:07.757Z,4.38
2022-11-22T08:34:46.870Z,4.34
2022-11-22T08:35:33.738Z,4.34
2022-11-22T08:36:07.861Z,4.38
2022-11-22T08:36:47.756Z,4.32
2022-11-22T08:37:27.781Z,4.43
2022-11-22T08:38:07.760Z,4.48
2022-11-22T08:38:48.808Z,4.52
2022-11-22T08:39:29.883Z,4.50
2022-11-22T08:40:10.798Z,4.55
2022-11-22T08:40:50.720Z,4.56
2022-11-22T08:41:31.801Z,4.61
2022-11-22T08:42:13.756Z,4.66
2022-11-22T08:42:53.811Z,4.62
2022-11-22T08:43:34.714Z,4.66
2022-11-22T08:44:14.759Z,4.68
2022-11-22T08:44:54.714Z,4.67
2022-11-22T08:45:34.790Z,4.68
2022-11-22T08:46:14.712Z,4.67
2022-11-22T08:46:55.776Z,4.63
2022-11-22T08:47:35.760Z,4.71
2022-11-22T08:48:21.893Z,4.68
2022-11-22T08:49:03.708Z,4.66
2022-11-22T08:49:43.779Z,4.74
2022-11-22T08:50:24.800Z,4.68
2022-11-22T08:51:11.792Z,4.70
2022-11-22T08:51:52.704Z,4.75
2022-11-22T08:52:32.911Z,4.74
2022-11-22T08:53:12.743Z,4.73
2022-11-22T08:53:53.820Z,4.75
2022-11-22T08:54:37.453Z,4.80
2022-11-22T08:55:17.780Z,4.74
2022-11-22T08:55:58.704Z,4.79
2022-11-22T08:56:38.772Z,4.85
2022-11-22T08:57:18.752Z,4.79
2022-11-22T08:57:58.793Z,4.84
2022-11-22T08:58:40.754Z,4.72
2022-11-22T08:59:20.813Z,4.77
2022-11-22T09:00:00.736Z,4.86
2022-11-22T09:00:40.795Z,4.77
2022-11-22T09:02:25.724Z,4.76
2022-11-22T09:02:59.809Z,4.84
2022-11-22T09:03:47.737Z,4.91
2022-11-22T09:04:21.717Z,4.87
2022-11-22T09:05:08.896Z,4.89
2022-11-22T09:09:02.787Z,4.85
2022-11-22T09:09:45.203Z,4.93
2022-11-22T09:10:32.699Z,4.97
2022-11-22T09:11:11.713Z,4.86
2022-11-22T09:11:58.688Z,4.95
2022-11-22T09:12:32.740Z,5.01
2022-11-22T09:13:19.754Z,4.92
2022-11-22T09:14:00.726Z,4.93
2022-11-22T09:14:54.720Z,5.01
2022-11-22T09:15:48.694Z,5.06
2022-11-22T09:16:42.685Z,5.10
2022-11-22T09:17:36.718Z,5.02
2022-11-22T09:18:30.669Z,5.11
2022-11-22T09:19:17.673Z,5.14
2022-11-22T09:19:51.836Z,5.11
2022-11-22T09:20:38.680Z,5.16
2022-11-22T09:21:17.892Z,5.18
2022-11-22T09:22:04.669Z,5.16
2022-11-22T09:22:38.722Z,5.11
2022-11-22T09:23:25.669Z,5.10
2022-11-22T09:23:59.797Z,5.04
2022-11-22T09:24:39.742Z,5.01
2022-11-22T09:25:19.692Z,4.99
2022-11-22T09:26:09.760Z,4.90
2022-11-22T09:26:50.756Z,4.90
2022-11-22T09:27:30.674Z,4.90
2022-11-22T09:28:10.761Z,4.87
2022-11-22T09:28:51.674Z,4.71
2022-11-22T09:29:32.189Z,4.81
2022-11-22T09:30:13.736Z,4.74
2022-11-22T09:30:53.695Z,4.79
2022-11-22T09:31:34.689Z,4.78
2022-11-22T09:32:17.719Z,4.71
2022-11-22T09:32:57.701Z,4.72
2022-11-22T09:33:39.815Z,4.71
2022-11-22T09:34:19.712Z,4.80
2022-11-22T09:34:59.783Z,4.81
2022-11-22T09:35:39.687Z,4.83
2022-11-22T09:36:31.761Z,4.80
2022-11-22T09:37:11.682Z,4.82
2022-11-22T09:37:51.716Z,4.72
2022-11-22T09:38:31.655Z,4.83
2022-11-22T09:39:11.779Z,4.81
2022-11-22T09:39:54.681Z,4.91
2022-11-22T09:40:35.740Z,4.91
2022-11-22T09:41:46.700Z,4.87